Terminal Aerodrome Forecast
Issued by NWS Cleveland, OH

Home | Current Version | Previous Version | Graphics & Text | Print | Product List | Glossary On
Versions: 1 2 3 4 5 6 7 8 9 10 11 12 13 14 15 16 17 18 19 20 21 22 23
000
FTUS41 KCLE 291100 AAA
TAFMFD
TAF AMD
KMFD 291153Z 2912/3012 VRB03KT 4SM BR SCT250
      TEMPO 2912/2913 1SM BR
     FM291500 30005KT P6SM SKC
     FM300000 24003KT P6SM BKN250
     FM301100 28005KT P6SM VCSH BKN040 OVC100=

USA.gov is the U.S. government's official web portal to all federal, state and local government web resources and services.